Portada
METAR-TAF:

METAR-TAF

Aeroports :

Scatsta, Shetland, Escòcia

latitud: 60-26N, longitud: 001-18W, altitud: 22 m

Observació

L'informe es va fer fa 34 minuts, a les 10:50 UTC
Vent 6 kt del Nord/Nord-Oest, variant entre Nord-Oest i Nord/Nord-Est
Temperatura 7°C
Humitat 57%
Pressió 1030 hPa
Visibilitat 10 km o més
Escasses núvols a una alçada de 3100 ft

METAR: EGPM 091050Z 34006KT 320V020 9999 FEW031 07/M01 Q1030 NOSIG

Hora: 12:24 (11:24 UTC)

Pronòstic

L'informe es va fer fa 39 minuts, a les 10:45 UTC
Pronòstic vàlid del 09 a les 09 UTC al 09 a les 18 UTC
Vent 9 kt del Nord/Nord-Oest
Visibilitat 10 km o més
Núvols disperses a una alçada de 3500 ft

TAF: EGPM 091045Z 0909/0918 33009KT 9999 SCT035

Observacions i pronòstics meteorològics de més de 4000 aeroports (METAR i TAF).

Les estacions disponibles són els punts grocs i vermells al mapa.

Posi el ratolí al punt desitjat per veure el nom de l'estació.

Feu clic per veure les observacions i els pronòstics meteorològics.

Per canviar el mapa: feu clic els botons verds amb una creu de color negre per apropar; al botó verd amb un guió per allunyar la imatge; o en les fletxes verdes per a mapes adjacents.


METAR-TAF: